createdAt,value
2023-01-04T00:00:39.183Z,7.28
2023-01-04T00:03:41.046Z,7.17
2023-01-04T00:06:42.508Z,7.25
2023-01-04T00:09:43.902Z,7.15
2023-01-04T00:12:45.363Z,5.88
2023-01-04T00:15:46.785Z,6.10
2023-01-04T00:18:49.393Z,5.77
2023-01-04T00:21:51.854Z,7.30
2023-01-04T00:24:53.534Z,6.80
2023-01-04T00:27:54.963Z,7.03
2023-01-04T00:30:56.383Z,5.63
2023-01-04T00:34:00.371Z,5.37
2023-01-04T00:37:01.812Z,4.70
2023-01-04T00:40:03.804Z,5.27
2023-01-04T00:43:05.196Z,5.15
2023-01-04T00:46:11.397Z,5.22
2023-01-04T00:49:13.532Z,5.63
2023-01-04T00:52:14.902Z,5.15
2023-01-04T00:55:16.422Z,5.30
2023-01-04T00:58:17.886Z,5.17
2023-01-04T01:01:19.485Z,5.30
2023-01-04T01:04:23.416Z,4.80
2023-01-04T01:07:24.942Z,4.78
2023-01-04T01:10:26.317Z,5.38
2023-01-04T01:13:27.735Z,5.28
2023-01-04T01:16:53.847Z,5.53
2023-01-04T01:19:50.787Z,5.32
2023-01-04T01:22:52.176Z,5.70
2023-01-04T01:25:53.550Z,7.60
2023-01-04T01:28:55.120Z,10.80
2023-01-04T01:31:56.633Z,14.90
2023-01-04T01:34:58.055Z,19.57
2023-01-04T01:37:59.531Z,24.52
2023-01-04T01:41:00.959Z,20.97
2023-01-04T01:44:40.091Z,21.33
2023-01-04T01:47:47.466Z,19.25
2023-01-04T01:50:54.101Z,18.60
2023-01-04T01:54:01.842Z,16.80
2023-01-04T01:57:05.898Z,12.95
2023-01-04T02:00:12.373Z,10.05
2023-01-04T02:03:21.676Z,8.75
2023-01-04T02:06:32.837Z,9.25
2023-01-04T02:09:34.318Z,8.15
2023-01-04T02:12:35.867Z,8.20
2023-01-04T02:16:03.660Z,6.87
2023-01-04T02:19:14.167Z,6.90
2023-01-04T02:22:42.609Z,5.80
2023-01-04T02:26:02.642Z,4.70
2023-01-04T02:29:19.118Z,4.40
2023-01-04T02:32:33.341Z,4.60
2023-01-04T02:35:43.414Z,5.28
2023-01-04T02:38:54.015Z,4.20
2023-01-04T02:42:12.029Z,5.05
2023-01-04T02:45:17.937Z,3.88
2023-01-04T02:48:37.952Z,4.20
2023-01-04T02:51:39.484Z,3.90
2023-01-04T02:54:43.150Z,4.57
2023-01-04T02:57:58.316Z,4.00
2023-01-04T03:01:49.400Z,4.25
2023-01-04T03:05:31.233Z,4.00
2023-01-04T03:08:42.633Z,4.05
2023-01-04T03:12:22.775Z,3.83
2023-01-04T03:15:29.962Z,4.03
2023-01-04T03:18:36.094Z,3.88
2023-01-04T03:21:42.462Z,3.35
2023-01-04T03:25:02.182Z,4.30
2023-01-04T03:28:24.462Z,3.88
2023-01-04T03:31:53.045Z,3.97
2023-01-04T03:35:13.587Z,3.75
2023-01-04T03:39:12.612Z,3.50
2023-01-04T03:42:41.008Z,3.88
2023-01-04T03:46:10.112Z,4.20
2023-01-04T03:49:27.964Z,3.90
2023-01-04T03:52:31.900Z,4.55
2023-01-04T03:55:35.345Z,4.30
2023-01-04T03:58:37.915Z,3.70
2023-01-04T04:01:41.571Z,3.55
2023-01-04T04:05:02.137Z,3.53
2023-01-04T04:08:22.430Z,3.65
2023-01-04T04:11:32.994Z,3.80
2023-01-04T04:14:34.364Z,3.65
2023-01-04T04:17:35.830Z,3.13
2023-01-04T04:20:37.468Z,3.17
2023-01-04T04:23:38.950Z,3.92
2023-01-04T04:26:40.363Z,3.23
2023-01-04T04:29:41.769Z,3.25
2023-01-04T04:32:43.238Z,2.80
2023-01-04T04:35:44.640Z,3.03
2023-01-04T04:38:46.039Z,3.72
2023-01-04T04:41:47.498Z,2.72
2023-01-04T04:44:48.922Z,2.47
2023-01-04T04:47:50.423Z,2.43
2023-01-04T04:50:51.817Z,2.77
2023-01-04T04:53:53.215Z,2.80
2023-01-04T04:56:54.641Z,3.33
2023-01-04T04:59:56.032Z,2.67
2023-01-04T05:03:01.735Z,2.65
2023-01-04T05:06:03.506Z,2.47
2023-01-04T05:09:04.874Z,2.08
2023-01-04T05:12:24.850Z,2.40
2023-01-04T05:15:35.411Z,2.20
2023-01-04T05:18:36.817Z,2.17
2023-01-04T05:21:38.245Z,1.92
2023-01-04T05:24:39.663Z,2.05
2023-01-04T05:27:41.253Z,2.20
2023-01-04T05:30:51.944Z,2.00
2023-01-04T05:33:53.333Z,2.08
2023-01-04T05:36:55.003Z,2.30
2023-01-04T05:39:56.501Z,2.60
2023-01-04T05:42:57.914Z,2.60
2023-01-04T05:45:59.414Z,2.75
2023-01-04T05:49:00.847Z,2.90
2023-01-04T05:52:02.339Z,2.50
2023-01-04T05:55:04.063Z,2.80
2023-01-04T05:58:05.467Z,3.00
2023-01-04T06:01:07.732Z,2.67
2023-01-04T06:07:10.641Z,2.63
2023-01-04T06:10:13.139Z,2.57
2023-01-04T06:13:14.551Z,2.00
2023-01-04T06:16:15.994Z,2.60
2023-01-04T06:19:17.519Z,2.07
2023-01-04T06:22:20.193Z,2.05
2023-01-04T06:25:21.597Z,2.10
2023-01-04T06:28:22.981Z,2.65
2023-01-04T06:31:24.449Z,2.10
2023-01-04T06:34:30.839Z,2.03
2023-01-04T06:37:32.971Z,2.30
2023-01-04T06:40:34.391Z,2.80
2023-01-04T06:43:36.014Z,2.30
2023-01-04T06:46:37.500Z,3.08
2023-01-04T06:49:38.943Z,2.00
2023-01-04T06:52:41.301Z,1.70
2023-01-04T06:58:45.010Z,1.60
2023-01-04T07:01:46.490Z,2.25
2023-01-04T07:04:48.018Z,2.23
2023-01-04T07:07:49.587Z,2.90
2023-01-04T07:10:51.091Z,1.80
2023-01-04T07:13:52.748Z,1.60
2023-01-04T07:16:54.347Z,1.67
2023-01-04T07:19:55.820Z,2.57
2023-01-04T07:22:57.242Z,2.15
2023-01-04T07:26:02.873Z,1.92
2023-01-04T07:29:17.168Z,2.42
2023-01-04T07:32:18.857Z,1.65
2023-01-04T07:35:21.273Z,1.70
2023-01-04T07:41:24.027Z,1.38
2023-01-04T07:44:27.679Z,1.53
2023-01-04T07:47:29.336Z,1.75
2023-01-04T07:50:30.792Z,1.60
2023-01-04T07:53:33.945Z,1.98
2023-01-04T07:56:35.350Z,2.38
2023-01-04T07:59:36.809Z,2.00
2023-01-04T08:02:38.783Z,2.50
2023-01-04T08:05:41.909Z,2.70
2023-01-04T08:08:43.781Z,2.28
2023-01-04T08:11:45.848Z,2.10
2023-01-04T08:14:47.264Z,2.20
2023-01-04T08:17:48.643Z,1.77
2023-01-04T08:20:54.893Z,1.50
2023-01-04T08:23:59.813Z,2.40
2023-01-04T08:27:01.284Z,1.23
2023-01-04T08:30:03.076Z,1.50
2023-01-04T08:33:13.548Z,1.58
2023-01-04T08:36:26.521Z,1.67
2023-01-04T08:39:33.191Z,1.33
2023-01-04T08:42:34.672Z,1.30
2023-01-04T08:45:36.327Z,1.40
2023-01-04T08:48:38.658Z,1.60
2023-01-04T08:54:41.555Z,1.20
2023-01-04T08:57:43.142Z,1.30
2023-01-04T09:00:44.592Z,1.13
2023-01-04T09:03:46.021Z,1.90
2023-01-04T09:06:47.433Z,1.60
2023-01-04T09:09:48.820Z,1.40
2023-01-04T09:12:50.287Z,1.40
2023-01-04T09:15:51.736Z,1.70
2023-01-04T09:18:54.957Z,1.90
2023-01-04T09:21:56.380Z,2.03
2023-01-04T09:24:57.814Z,2.20
2023-01-04T09:27:59.237Z,1.75
2023-01-04T09:31:07.501Z,1.33
2023-01-04T09:34:14.527Z,1.10
2023-01-04T09:37:17.074Z,1.35
2023-01-04T09:40:22.578Z,1.40
2023-01-04T09:43:25.404Z,1.60
2023-01-04T09:46:41.584Z,1.55
2023-01-04T09:49:57.747Z,1.50
2023-01-04T09:53:11.830Z,1.38
2023-01-04T09:56:19.321Z,1.70
2023-01-04T09:59:27.098Z,1.70
2023-01-04T10:02:42.078Z,1.50
2023-01-04T10:05:43.698Z,1.85
2023-01-04T10:08:45.142Z,1.90
2023-01-04T10:11:58.420Z,2.00
2023-01-04T10:15:21.022Z,1.63
2023-01-04T10:22:20.116Z,1.80
2023-01-04T10:25:34.390Z,1.65
2023-01-04T10:29:05.459Z,2.08
2023-01-04T10:32:22.506Z,1.80
2023-01-04T10:35:27.070Z,2.20
2023-01-04T10:38:36.350Z,2.13
2023-01-04T10:41:43.704Z,2.45
2023-01-04T10:44:54.802Z,2.53
2023-01-04T10:48:08.128Z,2.13
2023-01-04T10:51:15.008Z,1.60
2023-01-04T10:54:26.277Z,1.50
2023-01-04T10:57:43.580Z,1.60
2023-01-04T11:00:51.448Z,2.00
2023-01-04T11:04:03.239Z,2.10
2023-01-04T11:07:15.481Z,1.40
2023-01-04T11:10:23.957Z,1.40
2023-01-04T11:13:26.028Z,1.40
2023-01-04T11:16:29.847Z,1.38
2023-01-04T11:19:33.565Z,5.43
2023-01-04T11:22:50.133Z,1.27
2023-01-04T11:26:05.388Z,2.28
2023-01-04T11:29:15.883Z,2.80
2023-01-04T11:32:33.758Z,3.00
2023-01-04T11:35:42.928Z,2.10
2023-01-04T11:38:56.208Z,1.85
2023-01-04T11:42:04.386Z,2.40
2023-01-04T11:45:06.307Z,1.77
2023-01-04T11:48:15.072Z,1.90
2023-01-04T11:51:19.284Z,2.80
2023-01-04T11:54:20.738Z,2.50
2023-01-04T11:57:22.236Z,1.97
2023-01-04T12:00:23.953Z,2.60
2023-01-04T12:03:37.613Z,2.70
2023-01-04T12:06:56.686Z,1.92
2023-01-04T12:09:59.771Z,1.90
2023-01-04T12:13:02.343Z,1.80
2023-01-04T12:16:17.222Z,1.73
2023-01-04T12:19:20.051Z,1.60
2023-01-04T12:22:31.800Z,2.00
2023-01-04T12:25:39.444Z,1.85
2023-01-04T12:28:58.221Z,1.50
2023-01-04T12:32:05.699Z,1.90
2023-01-04T12:35:49.673Z,2.00
2023-01-04T12:38:56.765Z,1.50
2023-01-04T12:42:01.212Z,2.00
2023-01-04T12:45:13.787Z,1.80
2023-01-04T12:52:20.483Z,2.25
2023-01-04T12:55:33.474Z,1.90
2023-01-04T12:59:06.908Z,1.70
2023-01-04T13:02:16.936Z,1.98
2023-01-04T13:05:55.037Z,2.05
2023-01-04T13:08:41.935Z,2.53
2023-01-04T13:12:29.116Z,3.60
2023-01-04T13:15:36.593Z,2.10
2023-01-04T13:18:45.578Z,2.40
2023-01-04T13:21:48.300Z,2.63
2023-01-04T13:24:50.959Z,3.08
2023-01-04T13:28:03.611Z,2.28
2023-01-04T13:31:05.194Z,2.25
2023-01-04T13:34:16.192Z,2.20
2023-01-04T13:37:35.927Z,2.00
2023-01-04T13:40:49.055Z,2.40
2023-01-04T13:44:05.111Z,2.08
2023-01-04T13:47:09.015Z,2.35
2023-01-04T13:50:33.814Z,1.65
2023-01-04T13:53:35.284Z,1.75
2023-01-04T13:56:36.677Z,1.73
2023-01-04T13:59:38.076Z,2.30
2023-01-04T14:02:39.783Z,1.80
2023-01-04T14:05:48.095Z,1.80
2023-01-04T14:09:02.981Z,2.08
2023-01-04T14:12:16.631Z,2.00
2023-01-04T14:15:22.975Z,1.80
2023-01-04T14:18:27.099Z,1.30
2023-01-04T14:21:37.622Z,1.80
2023-01-04T14:25:08.495Z,1.85
2023-01-04T14:28:18.906Z,1.98
2023-01-04T14:31:21.841Z,1.50
2023-01-04T14:34:23.436Z,1.50
2023-01-04T14:37:24.989Z,1.17
2023-01-04T14:40:31.353Z,1.40
2023-01-04T14:43:34.669Z,1.52
2023-01-04T14:46:36.319Z,1.55
2023-01-04T14:49:37.735Z,1.40
2023-01-04T14:52:39.458Z,1.43
2023-01-04T14:55:40.930Z,1.70
2023-01-04T14:58:43.424Z,1.48
2023-01-04T15:04:46.502Z,1.40
2023-01-04T15:07:48.084Z,1.60
2023-01-04T15:10:54.552Z,1.40
2023-01-04T15:13:59.456Z,1.48
2023-01-04T15:17:00.850Z,1.47
2023-01-04T15:20:02.536Z,1.30
2023-01-04T15:23:03.998Z,1.70
2023-01-04T15:26:07.240Z,1.67
2023-01-04T15:29:09.683Z,1.50
2023-01-04T15:32:11.116Z,1.40
2023-01-04T15:35:16.764Z,1.77
2023-01-04T15:38:18.670Z,1.85
2023-01-04T15:41:38.842Z,2.65
2023-01-04T15:44:40.254Z,1.95
2023-01-04T15:47:41.659Z,1.60
2023-01-04T15:50:43.133Z,2.58
2023-01-04T15:53:44.625Z,1.93
2023-01-04T15:56:45.991Z,2.00
2023-01-04T15:59:48.797Z,2.08
2023-01-04T16:02:50.302Z,3.55
2023-01-04T16:05:51.819Z,3.28
2023-01-04T16:08:53.378Z,2.67
2023-01-04T16:12:13.368Z,2.70
2023-01-04T16:15:17.770Z,2.20
2023-01-04T16:18:19.316Z,1.92
2023-01-04T16:21:27.521Z,3.00
2023-01-04T16:25:08.588Z,2.38
2023-01-04T16:27:50.279Z,1.70
2023-01-04T16:30:54.195Z,2.80
2023-01-04T16:33:55.616Z,1.60
2023-01-04T16:36:57.010Z,2.10
2023-01-04T16:40:07.135Z,2.20
2023-01-04T16:43:09.888Z,1.65
2023-01-04T16:46:26.018Z,1.90
2023-01-04T16:49:27.455Z,2.40
2023-01-04T16:52:30.032Z,2.23
2023-01-04T16:55:31.499Z,1.92
2023-01-04T16:58:33.317Z,2.00
2023-01-04T17:01:38.410Z,1.98
2023-01-04T17:04:49.312Z,1.88
2023-01-04T17:07:50.685Z,1.58
2023-01-04T17:10:52.132Z,2.23
2023-01-04T17:13:54.483Z,1.50
2023-01-04T17:19:57.903Z,2.00
2023-01-04T17:22:59.625Z,1.50
2023-01-04T17:26:04.436Z,2.08
2023-01-04T17:29:05.961Z,1.90
2023-01-04T17:32:07.420Z,1.90
2023-01-04T17:35:08.912Z,1.67
2023-01-04T17:38:10.508Z,2.30
2023-01-04T17:41:16.453Z,3.38
2023-01-04T17:44:17.864Z,3.00
2023-01-04T17:47:19.583Z,2.60
2023-01-04T17:50:21.635Z,2.00
2023-01-04T17:53:23.430Z,3.03
2023-01-04T17:56:25.984Z,1.80
2023-01-04T17:59:27.403Z,1.85
2023-01-04T18:02:28.833Z,2.40
2023-01-04T18:05:39.396Z,2.30
2023-01-04T18:08:52.172Z,1.90
2023-01-04T18:11:53.674Z,1.83
2023-01-04T18:14:55.097Z,2.20
2023-01-04T18:17:56.490Z,1.97
2023-01-04T18:20:59.224Z,2.10
2023-01-04T18:27:26.222Z,1.85
2023-01-04T18:30:27.990Z,1.50
2023-01-04T18:33:29.396Z,1.80
2023-01-04T18:36:32.617Z,2.30
2023-01-04T18:39:35.643Z,2.33
2023-01-04T18:42:37.252Z,2.13
2023-01-04T18:45:41.961Z,1.90
2023-01-04T18:48:43.511Z,1.70
2023-01-04T18:51:44.952Z,1.90
2023-01-04T18:54:47.831Z,1.80
2023-01-04T18:57:49.575Z,2.20
2023-01-04T19:01:02.409Z,2.20
2023-01-04T19:04:04.660Z,2.10
2023-01-04T19:07:06.120Z,2.33
2023-01-04T19:10:08.262Z,1.67
2023-01-04T19:13:09.638Z,2.20
2023-01-04T19:16:13.374Z,2.20
2023-01-04T19:19:15.074Z,1.58
2023-01-04T19:22:16.468Z,1.60
2023-01-04T19:25:20.782Z,1.30
2023-01-04T19:28:24.644Z,1.65
2023-01-04T19:31:26.061Z,2.03
2023-01-04T19:34:27.985Z,2.63
2023-01-04T19:37:29.697Z,3.13
2023-01-04T19:40:31.113Z,3.40
2023-01-04T19:43:33.517Z,2.00
2023-01-04T19:49:38.935Z,2.90
2023-01-04T19:52:40.400Z,3.03
2023-01-04T19:55:42.174Z,3.27
2023-01-04T19:58:43.838Z,2.30
2023-01-04T20:01:45.281Z,2.20
2023-01-04T20:04:46.728Z,2.90
2023-01-04T20:07:49.130Z,3.58
2023-01-04T20:10:55.034Z,2.35
2023-01-04T20:13:56.547Z,2.90
2023-01-04T20:16:57.983Z,2.70
2023-01-04T20:19:59.510Z,2.20
2023-01-04T20:23:00.897Z,2.30
2023-01-04T20:26:11.240Z,2.00
2023-01-04T20:29:13.095Z,1.90
2023-01-04T20:32:14.494Z,2.00
2023-01-04T20:35:15.921Z,1.50
2023-01-04T20:38:17.420Z,1.60
2023-01-04T20:41:22.763Z,1.93
2023-01-04T20:44:24.223Z,1.80
2023-01-04T20:47:25.615Z,1.90
2023-01-04T20:50:26.991Z,1.50
2023-01-04T20:53:30.043Z,1.53
2023-01-04T20:56:37.329Z,1.58
2023-01-04T20:59:38.774Z,1.60
2023-01-04T21:02:40.385Z,1.90
2023-01-04T21:05:44.537Z,1.70
2023-01-04T21:08:46.399Z,1.30
2023-01-04T21:11:48.064Z,1.80
2023-01-04T21:14:49.472Z,2.50
2023-01-04T21:17:50.888Z,1.83
2023-01-04T21:20:53.039Z,1.90
2023-01-04T21:27:00.474Z,1.17
2023-01-04T21:30:02.104Z,1.70
2023-01-04T21:33:03.593Z,1.20
2023-01-04T21:36:25.468Z,1.33
2023-01-04T21:39:26.844Z,1.30
2023-01-04T21:42:28.288Z,1.00
2023-01-04T21:45:29.696Z,0.97
2023-01-04T21:48:31.305Z,1.10
2023-01-04T21:51:37.159Z,0.80
2023-01-04T21:54:39.290Z,0.90
2023-01-04T21:57:40.995Z,1.00
2023-01-04T22:00:42.899Z,1.20
2023-01-04T22:03:45.034Z,0.80
2023-01-04T22:06:46.545Z,0.90
2023-01-04T22:09:52.364Z,1.97
2023-01-04T22:12:56.936Z,1.60
2023-01-04T22:15:58.431Z,1.47
2023-01-04T22:18:59.929Z,1.20
2023-01-04T22:22:01.342Z,1.00
2023-01-04T22:25:02.874Z,1.30
2023-01-04T22:28:04.560Z,1.30
2023-01-04T22:31:11.028Z,1.30
2023-01-04T22:34:12.685Z,1.33
2023-01-04T22:37:14.069Z,1.00
2023-01-04T22:40:15.814Z,1.10
2023-01-04T22:43:17.256Z,0.95
2023-01-04T22:46:18.735Z,0.83
2023-01-04T22:49:20.220Z,0.93
2023-01-04T22:52:21.724Z,0.90
2023-01-04T22:55:23.257Z,1.10
2023-01-04T22:58:24.661Z,2.33
2023-01-04T23:01:29.950Z,1.27
2023-01-04T23:04:31.435Z,1.08
2023-01-04T23:07:32.967Z,1.20
2023-01-04T23:10:37.468Z,0.70
2023-01-04T23:13:38.919Z,0.82
2023-01-04T23:16:40.579Z,1.00
2023-01-04T23:19:42.059Z,0.82
2023-01-04T23:22:43.534Z,0.90
2023-01-04T23:25:44.978Z,0.97
2023-01-04T23:28:47.195Z,0.87
2023-01-04T23:31:48.866Z,0.80
2023-01-04T23:34:51.224Z,1.00
2023-01-04T23:37:52.633Z,0.60
2023-01-04T23:40:54.136Z,0.77
2023-01-04T23:43:55.585Z,0.70
2023-01-04T23:47:08.035Z,0.80
2023-01-04T23:53:10.964Z,0.60
2023-01-04T23:56:15.917Z,0.50
2023-01-04T23:59:17.890Z,0.65
